AirNav   Air Wisconsin pilot careers
 
 1742 users online  

2UT3 Fort Ranch Airport
Brigham City, Utah, USA

GOING TO BRIGHAM CITY?


FAA INFORMATION EFFECTIVE 29 MARCH 2018

Location

FAA Identifier: 2UT3
Lat/Long: 41-29-31.8000N / 112-35-28.2000W
41-29.530000N / 112-35.470000W
41.4921667 / -112.5911667
(estimated)
Elevation: 4440 ft. / 1353 m (estimated)
Variation: 14E (2000)
From city: 25 miles SW of BRIGHAM CITY, UT
Time zone: UTC -6 (UTC -7 during Standard Time)
Zip code: 84307

Airport Operations

Airport use: Private use. Permission required prior to landing
Activation date: 07/2002
Control tower: no
ARTCC: SALT LAKE CITY CENTER
FSS: CEDAR CITY FLIGHT SERVICE STATION
Attendance: UNATNDD
Wind indicator: yes
Segmented circle: no

Nearby radio navigation aids

VOR radial/distance  VOR name  Freq  Var
OGDr292/27.4OGDEN VORTAC115.7014E
LHOr221/31.7BRIGHAM CITY VOR/DME112.9014E

Airport Services

Runway Information

Runway 16/34

Dimensions: 3000 x 50 ft. / 914 x 15 m
Surface: gravel
RUNWAY 16  RUNWAY 34
Traffic pattern: rightleft

Airport Ownership and Management from official FAA records

Ownership: Privately-owned
Owner: RIVERBEND ENTERPRISES INC.
P.O. BOX 50126
IDAHO FALLS, ID 83405
Phone 208-522-0085
Manager: WILL MILHAM
280 INT'L WAY
IDAHO FALLS, ID 83402
Phone 208-522-0085

Additional Remarks

OWNER DESIRES ARPT NOT BE CHARTED.

Instrument Procedures

There are no published instrument procedures at 2UT3.

Some nearby airports with instrument procedures:

KBMC - Brigham City Regional Airport (24 nm E)
KOGD - Ogden-Hinckley Airport (32 nm SE)
KHIF - Hill Air Force Base (36 nm SE)
KLGU - Logan-Cache Airport (38 nm NE)
KSLC - Salt Lake City International Airport (51 nm SE)
 
Loc | Ops | Rwys | IFR | FBO | Links
Com | Nav | Svcs | Stats | Notes

AirNav Hotels Sweepstakes
 
Area around 2UT3 (Fort Ranch Airport)
 
Road maps at: MapQuest Bing Google
 
Aerial photo
No photo
 
Sectional chart

 
Airport distance calculator
Flying to Fort Ranch Airport? Find the distance to fly.

From to 2UT3

Sunrise and sunset
Times for 24-Apr-2018
 Local
(UTC-6)
 Zulu
(UTC)
Morning civil twilight06:0812:08
Sunrise06:3812:38
Sunset20:1902:19
Evening civil twilight20:4902:49

Current date and time
Zulu (UTC)  24-Apr-2018 18:45:35
Local (UTC-6)  24-Apr-2018 12:45:35
 
METAR
KBMC 
24nm E 
241835Z AUTO 05011G14KT 040V100 10SM CLR 14/M04 A3033 RMK AO1 T01441036
KOGD 
31nm SE 
241753Z 01007KT 10SM CLR 13/M03 A3031 RMK AO2 SLP241 T01331033 10133 20033 51003
KU16 
34nm SW 
241058Z AUTO 06004KT 10SM CLR 06/M01 A3025 RMK AO2 SLP859 T00611006 $
KHIF 
36nm SE 
241758Z 07011KT 10SM FEW050 13/M01 A3031 RMK AO2A SLP240 T01311009 10131 20044 50003
KLGU 
38nm NE 
241800Z AUTO 09018G23KT 10SM CLR 12/00 A3035 RMK AO2 WSHFT 1742 T01220000
TAF
KOGD 
31nm SE 
241720Z 2418/2518 35010KT P6SM SCT120 FM250300 16006KT P6SM SKC
KHIF 
36nm SE 
232102Z 2321/2503 28012G18KT 9999 FEW120 QNH3015INS BECMG 2405/2406 04009KT 9999 SKC QNH3020INS BECMG 2411/2412 09012G20KT 9999 SKC QNH3022INS BECMG 2423/2424 01012KT 9999 SKC QNH3024INS TX17/2321Z TN02/2412Z
KLGU 
38nm NE 
241720Z 2418/2518 36008KT P6SM SCT120 FM250300 VRB04KT P6SM SKC
NOTAMs
Click for the latest NOTAMs
NOTAMs are issued by the DoD/FAA and will open in a separate window not controlled by AirNav.

 

 
 

Would you like to see your business listed on this page?

 If your business provides an interesting product or service to pilots, flight crews, aircraft, or users of the Fort Ranch Airport, you should consider listing it here.  To start the listing process, click on the button below
 
Add a business
 

Other Pages about Fort Ranch Airport

Update a link
 
Copyright © AirNav, LLC. All rights reserved. Privacy Policy  Contact